createdAt,value
2023-03-18T00:00:09.889Z,99.90
2023-03-18T00:02:42.713Z,99.90
2023-03-18T00:05:10.613Z,99.90
2023-03-18T00:07:39.630Z,99.90
2023-03-18T00:10:07.338Z,99.90
2023-03-18T00:12:34.422Z,99.90
2023-03-18T00:15:01.220Z,99.90
2023-03-18T00:17:30.327Z,99.90
2023-03-18T00:19:57.103Z,99.90
2023-03-18T00:22:24.692Z,99.90
2023-03-18T00:24:51.395Z,99.90
2023-03-18T00:27:18.063Z,99.90
2023-03-18T00:29:45.943Z,99.90
2023-03-18T00:32:12.516Z,99.90
2023-03-18T00:34:39.603Z,99.90
2023-03-18T00:37:06.218Z,99.90
2023-03-18T00:39:33.222Z,99.90
2023-03-18T00:42:02.163Z,99.90
2023-03-18T00:44:28.796Z,99.90
2023-03-18T00:46:55.454Z,99.90
2023-03-18T00:49:22.154Z,99.90
2023-03-18T00:54:22.593Z,99.90
2023-03-18T00:56:49.544Z,99.90
2023-03-18T00:59:16.629Z,99.90
2023-03-18T01:01:43.249Z,99.90
2023-03-18T01:04:09.937Z,99.90
2023-03-18T01:06:37.587Z,99.90
2023-03-18T01:09:05.297Z,99.90
2023-03-18T01:11:32.095Z,99.90
2023-03-18T01:13:59.578Z,99.90
2023-03-18T01:16:26.586Z,99.90
2023-03-18T01:18:53.836Z,99.90
2023-03-18T01:21:20.974Z,99.90
2023-03-18T01:23:48.081Z,99.90
2023-03-18T01:26:17.276Z,99.90
2023-03-18T01:28:44.076Z,99.90
2023-03-18T01:31:12.517Z,99.90
2023-03-18T01:33:40.188Z,99.90
2023-03-18T01:36:10.606Z,99.90
2023-03-18T01:38:37.441Z,99.90
2023-03-18T01:41:04.522Z,99.90
2023-03-18T01:43:36.541Z,99.90
2023-03-18T01:46:23.589Z,99.90
2023-03-18T01:48:51.984Z,99.90
2023-03-18T01:51:19.800Z,99.90
2023-03-18T01:53:48.584Z,99.90
2023-03-18T01:56:15.939Z,99.90
2023-03-18T01:58:44.178Z,99.90
2023-03-18T02:01:18.954Z,99.90
2023-03-18T02:06:12.447Z,99.90
2023-03-18T02:08:40.349Z,99.90
2023-03-18T02:11:08.223Z,99.90
2023-03-18T02:13:38.111Z,99.90
2023-03-18T02:16:06.986Z,99.90
2023-03-18T02:18:36.568Z,99.90
2023-03-18T02:21:21.809Z,99.90
2023-03-18T02:24:05.795Z,99.90
2023-03-18T02:26:44.521Z,99.90
2023-03-18T02:29:12.209Z,99.90
2023-03-18T02:31:39.531Z,99.90
2023-03-18T02:34:07.741Z,99.90
2023-03-18T02:36:35.677Z,99.90
2023-03-18T02:39:02.502Z,99.90
2023-03-18T02:41:34.095Z,99.90
2023-03-18T02:44:01.100Z,99.90
2023-03-18T02:46:27.768Z,99.90
2023-03-18T02:48:54.937Z,99.90
2023-03-18T02:51:21.550Z,99.90
2023-03-18T02:53:48.393Z,99.90
2023-03-18T02:56:15.120Z,99.90
2023-03-18T02:58:41.882Z,99.90
2023-03-18T03:01:08.856Z,99.90
2023-03-18T03:03:35.931Z,99.90
2023-03-18T03:06:03.220Z,99.90
2023-03-18T03:08:30.456Z,99.90
2023-03-18T03:10:57.407Z,99.90
2023-03-18T03:13:24.789Z,99.90
2023-03-18T03:15:51.598Z,99.90
2023-03-18T03:18:18.346Z,99.90
2023-03-18T03:20:45.544Z,99.90
2023-03-18T03:23:13.982Z,99.90
2023-03-18T03:25:40.596Z,99.90
2023-03-18T03:28:08.487Z,99.90
2023-03-18T03:30:36.557Z,99.90
2023-03-18T03:33:03.538Z,99.90
2023-03-18T03:35:30.928Z,99.90
2023-03-18T03:37:57.683Z,99.90
2023-03-18T03:40:25.073Z,99.90
2023-03-18T03:42:51.850Z,99.90
2023-03-18T03:45:19.077Z,99.90
2023-03-18T03:47:48.678Z,99.90
2023-03-18T03:50:16.247Z,99.90
2023-03-18T03:52:43.526Z,99.90
2023-03-18T03:55:12.133Z,99.90
2023-03-18T03:57:39.097Z,99.90
2023-03-18T04:00:07.277Z,99.90
2023-03-18T04:02:33.915Z,99.90
2023-03-18T04:05:00.666Z,99.90
2023-03-18T04:07:27.708Z,99.90
2023-03-18T04:09:55.834Z,99.90
2023-03-18T04:12:22.422Z,99.90
2023-03-18T04:14:51.724Z,99.90
2023-03-18T04:17:18.440Z,99.90
2023-03-18T04:19:45.459Z,99.90
2023-03-18T04:22:12.132Z,99.90
2023-03-18T04:24:38.976Z,99.90
2023-03-18T04:27:05.788Z,99.90
2023-03-18T04:29:32.359Z,99.90
2023-03-18T04:31:59.758Z,99.90
2023-03-18T04:34:26.340Z,99.90
2023-03-18T04:36:52.954Z,99.90
2023-03-18T04:39:19.522Z,99.90
2023-03-18T04:41:46.537Z,99.90
2023-03-18T04:44:19.586Z,99.90
2023-03-18T04:46:46.244Z,99.90
2023-03-18T04:49:13.516Z,99.90
2023-03-18T04:51:40.103Z,99.90
2023-03-18T04:54:06.948Z,99.90
2023-03-18T04:56:34.109Z,99.90
2023-03-18T04:59:00.683Z,99.90
2023-03-18T05:01:28.326Z,99.90
2023-03-18T05:03:54.949Z,99.90
2023-03-18T05:06:26.748Z,99.90
2023-03-18T05:08:53.515Z,99.90
2023-03-18T05:11:20.458Z,99.90
2023-03-18T05:13:47.519Z,99.90
2023-03-18T05:16:15.229Z,99.90
2023-03-18T05:18:41.915Z,99.90
2023-03-18T05:21:10.036Z,99.90
2023-03-18T05:23:36.663Z,99.90
2023-03-18T05:26:03.805Z,99.90
2023-03-18T05:28:30.396Z,99.90
2023-03-18T05:30:56.934Z,99.90
2023-03-18T05:33:23.694Z,99.90
2023-03-18T05:35:50.247Z,99.90
2023-03-18T05:38:17.139Z,99.90
2023-03-18T05:40:43.665Z,99.90
2023-03-18T05:43:10.427Z,99.90
2023-03-18T05:45:40.035Z,99.90
2023-03-18T05:48:07.135Z,99.90
2023-03-18T05:50:35.544Z,99.90
2023-03-18T05:53:02.796Z,99.90
2023-03-18T05:55:30.326Z,99.90
2023-03-18T05:57:57.571Z,99.90
2023-03-18T06:00:24.757Z,99.90
2023-03-18T06:02:52.527Z,99.90
2023-03-18T06:05:19.173Z,99.90
2023-03-18T06:07:46.897Z,99.90
2023-03-18T06:10:13.595Z,99.90
2023-03-18T06:12:41.314Z,99.90
2023-03-18T06:15:09.300Z,99.90
2023-03-18T06:17:35.996Z,99.90
2023-03-18T06:20:03.352Z,99.90
2023-03-18T06:22:31.638Z,99.90
2023-03-18T06:24:58.232Z,99.90
2023-03-18T06:27:24.850Z,99.90
2023-03-18T06:29:51.471Z,99.90
2023-03-18T06:32:18.062Z,99.90
2023-03-18T06:34:45.167Z,99.90
2023-03-18T06:37:12.037Z,99.90
2023-03-18T06:39:41.071Z,99.90
2023-03-18T06:42:07.873Z,99.90
2023-03-18T06:44:35.292Z,99.90
2023-03-18T06:47:01.977Z,99.90
2023-03-18T06:49:28.540Z,99.90
2023-03-18T06:51:55.190Z,99.90
2023-03-18T06:54:21.818Z,99.90
2023-03-18T06:56:48.518Z,99.90
2023-03-18T06:59:15.447Z,99.90
2023-03-18T07:01:42.167Z,99.90
2023-03-18T07:04:09.061Z,99.90
2023-03-18T07:06:36.301Z,99.90
2023-03-18T07:09:02.956Z,99.90
2023-03-18T07:11:30.086Z,99.90
2023-03-18T07:13:56.728Z,99.90
2023-03-18T07:16:23.470Z,99.90
2023-03-18T07:18:50.109Z,99.90
2023-03-18T07:21:18.842Z,99.90
2023-03-18T07:23:46.389Z,99.90
2023-03-18T07:26:12.985Z,99.90
2023-03-18T07:28:45.189Z,99.90
2023-03-18T07:31:11.860Z,99.90
2023-03-18T07:33:38.502Z,99.90
2023-03-18T07:36:05.442Z,99.90
2023-03-18T07:38:35.040Z,99.90
2023-03-18T07:41:05.058Z,99.90
2023-03-18T07:43:33.931Z,99.90
2023-03-18T07:46:00.993Z,99.90
2023-03-18T07:48:27.702Z,99.90
2023-03-18T07:50:54.395Z,99.90
2023-03-18T07:53:21.116Z,99.90
2023-03-18T07:55:47.893Z,99.90
2023-03-18T07:58:15.436Z,99.90
2023-03-18T08:00:42.747Z,99.90
2023-03-18T08:03:09.688Z,99.90
2023-03-18T08:05:36.303Z,99.90
2023-03-18T08:08:04.322Z,99.90
2023-03-18T08:10:31.391Z,99.90
2023-03-18T08:12:58.067Z,99.90
2023-03-18T08:15:26.020Z,99.90
2023-03-18T08:17:53.682Z,99.90
2023-03-18T08:20:21.302Z,99.90
2023-03-18T08:22:48.423Z,99.90
2023-03-18T08:25:15.252Z,99.90
2023-03-18T08:27:42.462Z,99.90
2023-03-18T08:30:11.340Z,99.90
2023-03-18T08:32:38.364Z,99.90
2023-03-18T08:35:05.413Z,99.90
2023-03-18T08:37:32.604Z,99.90
2023-03-18T08:39:59.223Z,99.90
2023-03-18T08:42:25.812Z,99.90
2023-03-18T08:44:52.473Z,99.90
2023-03-18T08:47:19.916Z,99.90
2023-03-18T08:49:46.618Z,99.90
2023-03-18T08:52:13.377Z,99.90
2023-03-18T08:54:41.394Z,99.90
2023-03-18T08:57:08.041Z,99.90
2023-03-18T08:59:34.737Z,99.90
2023-03-18T09:02:01.372Z,99.90
2023-03-18T09:04:29.270Z,99.90
2023-03-18T09:07:00.868Z,99.90
2023-03-18T09:09:40.913Z,99.90
2023-03-18T09:12:09.883Z,99.90
2023-03-18T09:14:36.488Z,99.90
2023-03-18T09:17:03.204Z,99.90
2023-03-18T09:19:29.902Z,99.90
2023-03-18T09:21:56.498Z,99.90
2023-03-18T09:24:23.236Z,99.90
2023-03-18T09:26:49.974Z,99.90
2023-03-18T09:29:19.947Z,99.90
2023-03-18T09:31:48.968Z,99.90
2023-03-18T09:34:15.938Z,99.90
2023-03-18T09:36:49.140Z,99.90
2023-03-18T09:39:15.871Z,99.90
2023-03-18T09:41:52.646Z,99.90
2023-03-18T09:44:31.624Z,99.90
2023-03-18T09:47:13.369Z,99.90
2023-03-18T09:49:49.737Z,99.90
2023-03-18T09:52:18.963Z,99.90
2023-03-18T09:55:08.579Z,99.50
2023-03-18T09:57:37.200Z,99.40
2023-03-18T10:00:24.970Z,96.10
2023-03-18T10:02:59.099Z,96.60
2023-03-18T10:05:29.376Z,97.10
2023-03-18T10:07:59.377Z,95.70
2023-03-18T10:10:29.394Z,95.50
2023-03-18T10:13:28.380Z,95.70
2023-03-18T10:15:59.621Z,95.40
2023-03-18T10:18:29.081Z,95.50
2023-03-18T10:21:02.241Z,96.00
2023-03-18T10:25:59.331Z,96.80
2023-03-18T10:28:38.321Z,95.70
2023-03-18T10:31:08.385Z,94.90
2023-03-18T10:33:55.252Z,93.50
2023-03-18T10:36:40.694Z,93.80
2023-03-18T10:39:15.348Z,92.60
2023-03-18T10:41:43.685Z,92.40
2023-03-18T10:44:17.347Z,93.90
2023-03-18T10:46:46.639Z,92.10
2023-03-18T10:49:17.593Z,91.90
2023-03-18T10:51:53.815Z,92.60
2023-03-18T10:54:36.653Z,93.20
2023-03-18T10:57:03.696Z,93.60
2023-03-18T10:59:33.166Z,92.10
2023-03-18T11:02:02.500Z,91.70
2023-03-18T11:04:32.034Z,91.40
2023-03-18T11:07:01.386Z,92.30
2023-03-18T11:09:33.276Z,92.10
2023-03-18T11:12:05.594Z,91.40
2023-03-18T11:14:32.539Z,91.40
2023-03-18T11:16:59.282Z,91.50
2023-03-18T11:19:32.095Z,91.80
2023-03-18T11:22:04.459Z,91.80
2023-03-18T11:24:43.940Z,92.60
2023-03-18T11:27:30.837Z,91.60
2023-03-18T11:30:00.160Z,92.20
2023-03-18T11:32:31.292Z,87.80
2023-03-18T11:35:00.570Z,90.80
2023-03-18T11:37:29.616Z,91.30
2023-03-18T11:40:07.425Z,91.70
2023-03-18T11:42:34.039Z,92.40
2023-03-18T11:45:01.599Z,92.50
2023-03-18T11:47:30.157Z,93.70
2023-03-18T11:49:57.525Z,91.90
2023-03-18T11:52:24.094Z,92.30
2023-03-18T11:55:01.070Z,90.80
2023-03-18T11:57:57.602Z,91.70
2023-03-18T12:00:43.418Z,92.40
2023-03-18T12:03:28.807Z,92.30
2023-03-18T12:06:10.613Z,92.80
2023-03-18T12:08:47.911Z,92.70
2023-03-18T12:11:14.769Z,92.70
2023-03-18T12:13:47.267Z,92.90
2023-03-18T12:16:14.984Z,94.50
2023-03-18T12:18:51.696Z,93.20
2023-03-18T12:21:30.200Z,93.70
2023-03-18T12:24:03.982Z,93.40
2023-03-18T12:26:30.521Z,92.80
2023-03-18T12:29:09.654Z,92.90
2023-03-18T12:32:11.741Z,93.60
2023-03-18T12:34:38.674Z,94.10
2023-03-18T12:37:16.398Z,93.20
2023-03-18T12:40:18.713Z,92.90
2023-03-18T12:43:03.800Z,93.10
2023-03-18T12:45:34.787Z,93.20
2023-03-18T12:48:05.225Z,93.30
2023-03-18T12:50:42.722Z,92.60
2023-03-18T12:53:17.186Z,93.90
2023-03-18T12:55:46.081Z,92.90
2023-03-18T12:58:15.372Z,92.70
2023-03-18T13:00:52.311Z,93.40
2023-03-18T13:03:26.752Z,93.70
2023-03-18T13:06:05.749Z,94.20
2023-03-18T13:08:41.238Z,94.00
2023-03-18T13:11:12.238Z,93.80
2023-03-18T13:13:43.608Z,94.70
2023-03-18T13:16:11.789Z,94.50
2023-03-18T13:18:44.576Z,95.10
2023-03-18T13:21:20.280Z,95.60
2023-03-18T13:23:46.955Z,96.40
2023-03-18T13:26:29.048Z,98.20
2023-03-18T13:29:04.518Z,97.60
2023-03-18T13:31:41.566Z,99.90
2023-03-18T13:34:27.053Z,99.90
2023-03-18T13:36:58.467Z,99.90
2023-03-18T13:39:37.393Z,99.90
2023-03-18T13:42:03.984Z,99.90
2023-03-18T13:44:38.097Z,98.80
2023-03-18T13:47:07.432Z,99.20
2023-03-18T13:49:39.244Z,99.80
2023-03-18T13:52:21.183Z,98.70
2023-03-18T13:54:48.554Z,99.90
2023-03-18T13:57:24.366Z,99.70
2023-03-18T13:59:51.132Z,99.60
2023-03-18T14:02:45.324Z,99.90
2023-03-18T14:05:31.328Z,99.90
2023-03-18T14:07:58.509Z,99.90
2023-03-18T14:10:25.210Z,99.90
2023-03-18T14:12:52.014Z,99.90
2023-03-18T14:15:37.897Z,99.90
2023-03-18T14:18:17.488Z,99.90
2023-03-18T14:20:44.314Z,99.10
2023-03-18T14:23:28.530Z,99.60
2023-03-18T14:26:02.186Z,99.10
2023-03-18T14:28:30.079Z,99.50
2023-03-18T14:30:58.460Z,99.70
2023-03-18T14:33:25.064Z,98.10
2023-03-18T14:35:59.155Z,97.60
2023-03-18T14:38:30.535Z,96.80
2023-03-18T14:40:58.004Z,96.90
2023-03-18T14:43:29.982Z,96.60
2023-03-18T14:45:58.785Z,96.80
2023-03-18T14:48:35.188Z,96.50
2023-03-18T14:51:12.913Z,96.10
2023-03-18T14:53:41.760Z,96.40
2023-03-18T14:56:20.673Z,95.60
2023-03-18T14:58:47.668Z,95.50
2023-03-18T15:01:16.173Z,95.00
2023-03-18T15:03:44.722Z,94.00
2023-03-18T15:06:17.660Z,91.30
2023-03-18T15:08:48.686Z,91.40
2023-03-18T15:11:16.330Z,91.80
2023-03-18T15:13:43.013Z,92.00
2023-03-18T15:16:11.177Z,92.10
2023-03-18T15:18:38.699Z,92.10
2023-03-18T15:21:18.924Z,92.30
2023-03-18T15:23:51.108Z,91.60
2023-03-18T15:26:18.326Z,91.60
2023-03-18T15:28:48.817Z,91.60
2023-03-18T15:31:38.704Z,91.00
2023-03-18T15:34:05.209Z,88.90
2023-03-18T15:36:40.068Z,83.50
2023-03-18T15:39:20.520Z,83.40
2023-03-18T15:41:50.430Z,85.30
2023-03-18T15:44:22.510Z,88.50
2023-03-18T15:46:49.903Z,90.00
2023-03-18T15:49:17.642Z,91.30
2023-03-18T15:51:48.383Z,91.00
2023-03-18T15:54:16.356Z,90.30
2023-03-18T15:56:44.203Z,90.00
2023-03-18T15:59:15.997Z,89.60
2023-03-18T16:01:42.613Z,90.00
2023-03-18T16:04:12.257Z,88.60
2023-03-18T16:06:40.225Z,89.20
2023-03-18T16:09:19.236Z,90.40
2023-03-18T16:11:48.433Z,90.80
2023-03-18T16:14:16.334Z,91.40
2023-03-18T16:16:43.064Z,90.90
2023-03-18T16:19:16.377Z,90.60
2023-03-18T16:21:42.858Z,90.00
2023-03-18T16:24:10.597Z,90.10
2023-03-18T16:26:37.536Z,88.90
2023-03-18T16:29:11.177Z,87.80
2023-03-18T16:31:38.396Z,88.00
2023-03-18T16:34:06.650Z,89.50
2023-03-18T16:36:35.137Z,86.60
2023-03-18T16:39:01.831Z,85.40
2023-03-18T16:41:28.621Z,84.70
2023-03-18T16:43:55.634Z,85.10
2023-03-18T16:46:23.913Z,85.40
2023-03-18T16:48:50.597Z,86.40
2023-03-18T16:51:18.925Z,85.50
2023-03-18T16:53:45.546Z,84.90
2023-03-18T16:56:16.846Z,83.10
2023-03-18T16:58:44.515Z,83.40
2023-03-18T17:01:14.374Z,84.40
2023-03-18T17:03:40.938Z,85.50
2023-03-18T17:06:08.722Z,86.80
2023-03-18T17:08:36.703Z,88.90
2023-03-18T17:11:03.846Z,89.30
2023-03-18T17:13:32.897Z,88.30
2023-03-18T17:15:59.486Z,87.80
2023-03-18T17:18:26.273Z,89.60
2023-03-18T17:20:52.937Z,90.30
2023-03-18T17:23:21.192Z,91.10
2023-03-18T17:25:49.383Z,91.60
2023-03-18T17:28:18.324Z,91.70
2023-03-18T17:30:44.936Z,92.10
2023-03-18T17:33:24.358Z,92.00
2023-03-18T17:35:51.998Z,92.40
2023-03-18T17:38:19.084Z,92.90
2023-03-18T17:40:47.730Z,92.90
2023-03-18T17:43:18.726Z,93.20
2023-03-18T17:45:47.622Z,93.40
2023-03-18T17:48:14.503Z,93.70
2023-03-18T17:50:44.267Z,93.80
2023-03-18T17:53:25.301Z,93.90
2023-03-18T17:55:53.358Z,94.30
2023-03-18T17:58:21.272Z,94.40
2023-03-18T18:00:48.049Z,94.60
2023-03-18T18:03:22.231Z,94.60
2023-03-18T18:05:48.851Z,94.90
2023-03-18T18:08:17.751Z,94.60
2023-03-18T18:10:45.153Z,94.50
2023-03-18T18:13:16.708Z,94.70
2023-03-18T18:15:43.883Z,94.90
2023-03-18T18:18:17.342Z,95.20
2023-03-18T18:20:43.926Z,95.30
2023-03-18T18:23:17.130Z,95.80
2023-03-18T18:25:43.763Z,96.00
2023-03-18T18:28:21.231Z,96.30
2023-03-18T18:30:50.891Z,96.30
2023-03-18T18:33:17.609Z,96.40
2023-03-18T18:35:44.153Z,96.70
2023-03-18T18:38:12.468Z,96.90
2023-03-18T18:40:39.507Z,96.90
2023-03-18T18:43:06.334Z,97.30
2023-03-18T18:45:34.107Z,97.40
2023-03-18T18:48:00.776Z,97.70
2023-03-18T18:50:28.783Z,97.80
2023-03-18T18:52:55.648Z,98.00
2023-03-18T18:55:22.267Z,98.40
2023-03-18T18:57:48.855Z,98.30
2023-03-18T19:00:17.379Z,98.30
2023-03-18T19:02:46.072Z,98.40
2023-03-18T19:05:12.832Z,98.60
2023-03-18T19:07:41.637Z,98.30
2023-03-18T19:10:13.257Z,98.40
2023-03-18T19:12:40.054Z,98.10
2023-03-18T19:15:07.266Z,98.00
2023-03-18T19:17:34.298Z,98.00
2023-03-18T19:20:01.409Z,98.40
2023-03-18T19:22:28.299Z,98.20
2023-03-18T19:24:54.970Z,98.20
2023-03-18T19:27:26.630Z,98.00
2023-03-18T19:29:54.091Z,98.10
2023-03-18T19:32:21.614Z,98.30
2023-03-18T19:34:48.839Z,97.90
2023-03-18T19:37:20.474Z,98.10
2023-03-18T19:39:47.138Z,98.20
2023-03-18T19:42:17.628Z,98.20
2023-03-18T19:44:45.227Z,98.60
2023-03-18T19:47:25.486Z,98.70
2023-03-18T19:49:52.454Z,98.90
2023-03-18T19:52:19.296Z,99.90
2023-03-18T19:54:46.595Z,99.70
2023-03-18T19:57:15.314Z,99.30
2023-03-18T19:59:42.969Z,99.10
2023-03-18T20:02:23.122Z,99.00
2023-03-18T20:04:50.853Z,98.80
2023-03-18T20:07:18.658Z,98.80
2023-03-18T20:09:45.243Z,98.70
2023-03-18T20:12:34.915Z,98.60
2023-03-18T20:15:01.806Z,98.50
2023-03-18T20:17:28.355Z,98.50
2023-03-18T20:19:55.189Z,98.50
2023-03-18T20:22:52.850Z,98.90
2023-03-18T20:25:25.966Z,98.60
2023-03-18T20:27:56.099Z,98.60
2023-03-18T20:30:24.373Z,98.30
2023-03-18T20:32:51.416Z,98.20
2023-03-18T20:35:19.269Z,97.90
2023-03-18T20:37:46.436Z,97.70
2023-03-18T20:40:23.284Z,97.30
2023-03-18T20:42:50.023Z,97.40
2023-03-18T20:45:16.896Z,97.10
2023-03-18T20:47:44.322Z,97.00
2023-03-18T20:50:18.395Z,97.20
2023-03-18T20:52:46.937Z,97.50
2023-03-18T20:57:48.824Z,97.30
2023-03-18T21:00:18.729Z,97.20
2023-03-18T21:02:46.832Z,97.20
2023-03-18T21:05:13.893Z,98.30
2023-03-18T21:07:43.072Z,99.20
2023-03-18T21:10:15.004Z,99.90
2023-03-18T21:12:41.654Z,99.90
2023-03-18T21:15:15.445Z,99.90
2023-03-18T21:17:42.386Z,99.90
2023-03-18T21:20:21.717Z,99.90
2023-03-18T21:22:50.350Z,99.90
2023-03-18T21:25:18.376Z,99.90
2023-03-18T21:27:45.980Z,99.90
2023-03-18T21:30:13.707Z,99.90
2023-03-18T21:32:41.068Z,99.90
2023-03-18T21:35:14.518Z,99.90
2023-03-18T21:37:41.086Z,99.90
2023-03-18T21:40:08.544Z,99.90
2023-03-18T21:42:36.613Z,99.90
2023-03-18T21:45:04.341Z,99.90
2023-03-18T21:47:30.912Z,99.90
2023-03-18T21:49:57.534Z,99.90
2023-03-18T21:52:29.190Z,99.90
2023-03-18T21:54:55.980Z,99.90
2023-03-18T21:57:25.779Z,99.90
2023-03-18T21:59:53.197Z,99.90
2023-03-18T22:02:26.525Z,99.90
2023-03-18T22:04:53.677Z,99.90
2023-03-18T22:07:22.966Z,99.90
2023-03-18T22:09:49.740Z,99.90
2023-03-18T22:12:18.085Z,99.90
2023-03-18T22:14:44.693Z,99.90
2023-03-18T22:17:25.363Z,99.90
2023-03-18T22:19:56.059Z,99.90
2023-03-18T22:22:23.770Z,99.90
2023-03-18T22:24:51.199Z,99.90
2023-03-18T22:27:19.219Z,99.90
2023-03-18T22:29:46.226Z,99.90
2023-03-18T22:32:21.618Z,99.90
2023-03-18T22:34:48.619Z,99.90
2023-03-18T22:37:23.019Z,99.90
2023-03-18T22:39:49.944Z,99.90
2023-03-18T22:42:17.893Z,99.90
2023-03-18T22:44:44.620Z,99.90
2023-03-18T22:47:15.096Z,99.90
2023-03-18T22:49:41.998Z,99.90
2023-03-18T22:52:14.683Z,99.90
2023-03-18T22:54:44.108Z,99.90
2023-03-18T22:57:18.432Z,99.90
2023-03-18T22:59:45.398Z,99.90
2023-03-18T23:02:17.048Z,99.90
2023-03-18T23:04:43.893Z,99.90
2023-03-18T23:07:20.437Z,99.90
2023-03-18T23:09:56.167Z,99.90
2023-03-18T23:12:25.737Z,99.90
2023-03-18T23:14:53.066Z,99.90
2023-03-18T23:17:21.198Z,99.90
2023-03-18T23:19:47.863Z,99.90
2023-03-18T23:22:22.194Z,99.90
2023-03-18T23:24:48.778Z,99.90
2023-03-18T23:27:15.291Z,99.90
2023-03-18T23:29:43.289Z,99.90
2023-03-18T23:32:10.539Z,99.90
2023-03-18T23:34:37.061Z,99.90
2023-03-18T23:37:03.780Z,99.90
2023-03-18T23:39:31.199Z,99.90
2023-03-18T23:41:57.784Z,99.90
2023-03-18T23:44:25.505Z,99.90
2023-03-18T23:46:52.623Z,99.90
2023-03-18T23:49:19.274Z,99.90
2023-03-18T23:51:46.036Z,99.90
2023-03-18T23:54:13.824Z,99.90
2023-03-18T23:56:40.392Z,99.90
2023-03-18T23:59:06.937Z,99.90
